sensor_id;sensor_type;location;lat;lon;timestamp;temperature;humidity
2861;DHT22;1438;50.922;6.704;2022-12-13T00:00:11;-3.30;99.90
2861;DHT22;1438;50.922;6.704;2022-12-13T00:02:43;-3.30;99.90
2861;DHT22;1438;50.922;6.704;2022-12-13T00:05:09;-3.30;99.90
2861;DHT22;1438;50.922;6.704;2022-12-13T00:07:36;-3.30;99.90
2861;DHT22;1438;50.922;6.704;2022-12-13T00:10:03;-3.30;99.90
2861;DHT22;1438;50.922;6.704;2022-12-13T00:12:29;-3.30;99.90
2861;DHT22;1438;50.922;6.704;2022-12-13T00:14:55;-3.40;99.90
2861;DHT22;1438;50.922;6.704;2022-12-13T00:17:20;-3.40;99.90
2861;DHT22;1438;50.922;6.704;2022-12-13T00:19:46;-3.40;99.90
2861;DHT22;1438;50.922;6.704;2022-12-13T00:22:13;-3.40;99.90
2861;DHT22;1438;50.922;6.704;2022-12-13T00:24:39;-3.40;99.90
2861;DHT22;1438;50.922;6.704;2022-12-13T00:27:04;-3.50;99.90
2861;DHT22;1438;50.922;6.704;2022-12-13T00:29:31;-3.50;99.90
2861;DHT22;1438;50.922;6.704;2022-12-13T00:31:56;-3.50;99.90
2861;DHT22;1438;50.922;6.704;2022-12-13T00:34:22;-3.60;99.90
2861;DHT22;1438;50.922;6.704;2022-12-13T00:36:48;-3.60;99.90
2861;DHT22;1438;50.922;6.704;2022-12-13T00:39:14;-3.60;99.90
2861;DHT22;1438;50.922;6.704;2022-12-13T00:41:42;-3.70;99.90
2861;DHT22;1438;50.922;6.704;2022-12-13T00:44:13;-3.60;99.90
2861;DHT22;1438;50.922;6.704;2022-12-13T00:46:39;-3.60;99.90
2861;DHT22;1438;50.922;6.704;2022-12-13T00:49:05;-3.70;99.90
2861;DHT22;1438;50.922;6.704;2022-12-13T00:51:32;-3.70;99.90
2861;DHT22;1438;50.922;6.704;2022-12-13T00:53:59;-3.70;99.90
2861;DHT22;1438;50.922;6.704;2022-12-13T00:56:28;-3.80;99.90
2861;DHT22;1438;50.922;6.704;2022-12-13T00:58:54;-3.80;99.90
2861;DHT22;1438;50.922;6.704;2022-12-13T01:01:25;-3.90;99.90
2861;DHT22;1438;50.922;6.704;2022-12-13T01:03:55;-3.90;99.90
2861;DHT22;1438;50.922;6.704;2022-12-13T01:08:52;-3.90;99.90
2861;DHT22;1438;50.922;6.704;2022-12-13T01:11:18;-4.00;99.90
2861;DHT22;1438;50.922;6.704;2022-12-13T01:13:44;-4.00;99.90
2861;DHT22;1438;50.922;6.704;2022-12-13T01:16:11;-4.00;99.90
2861;DHT22;1438;50.922;6.704;2022-12-13T01:18:38;-4.00;99.90
2861;DHT22;1438;50.922;6.704;2022-12-13T01:21:14;-4.10;99.90
2861;DHT22;1438;50.922;6.704;2022-12-13T01:23:41;-4.10;99.90
2861;DHT22;1438;50.922;6.704;2022-12-13T01:26:12;-4.20;99.90
2861;DHT22;1438;50.922;6.704;2022-12-13T01:28:38;-4.20;99.90
2861;DHT22;1438;50.922;6.704;2022-12-13T01:31:06;-4.20;99.90
2861;DHT22;1438;50.922;6.704;2022-12-13T01:33:33;-4.20;99.90
2861;DHT22;1438;50.922;6.704;2022-12-13T01:36:04;-4.20;99.90
2861;DHT22;1438;50.922;6.704;2022-12-13T01:38:31;-4.20;99.90
2861;DHT22;1438;50.922;6.704;2022-12-13T01:40:57;-4.20;99.90
2861;DHT22;1438;50.922;6.704;2022-12-13T01:43:50;-4.30;99.90
2861;DHT22;1438;50.922;6.704;2022-12-13T01:46:17;-4.30;99.90
2861;DHT22;1438;50.922;6.704;2022-12-13T01:48:47;-4.30;99.90
2861;DHT22;1438;50.922;6.704;2022-12-13T01:51:16;-4.30;99.90
2861;DHT22;1438;50.922;6.704;2022-12-13T01:53:44;-4.30;99.90
2861;DHT22;1438;50.922;6.704;2022-12-13T01:56:22;-4.30;99.90
2861;DHT22;1438;50.922;6.704;2022-12-13T01:58:49;-4.30;99.90
2861;DHT22;1438;50.922;6.704;2022-12-13T02:01:17;-4.30;99.90
2861;DHT22;1438;50.922;6.704;2022-12-13T02:03:43;-4.30;99.90
2861;DHT22;1438;50.922;6.704;2022-12-13T02:06:18;-4.40;99.90
2861;DHT22;1438;50.922;6.704;2022-12-13T02:08:47;-4.40;99.90
2861;DHT22;1438;50.922;6.704;2022-12-13T02:11:13;-4.40;99.90
2861;DHT22;1438;50.922;6.704;2022-12-13T02:13:39;-4.40;99.90
2861;DHT22;1438;50.922;6.704;2022-12-13T02:19:10;-4.50;99.90
2861;DHT22;1438;50.922;6.704;2022-12-13T02:22:20;-4.50;99.90
2861;DHT22;1438;50.922;6.704;2022-12-13T02:33:05;-4.50;99.90
2861;DHT22;1438;50.922;6.704;2022-12-13T02:35:41;-4.50;99.90
2861;DHT22;1438;50.922;6.704;2022-12-13T02:40:47;-4.50;99.90
2861;DHT22;1438;50.922;6.704;2022-12-13T02:43:31;-4.50;99.90
2861;DHT22;1438;50.922;6.704;2022-12-13T02:46:01;-4.60;99.90
2861;DHT22;1438;50.922;6.704;2022-12-13T02:48:30;-4.60;99.90
2861;DHT22;1438;50.922;6.704;2022-12-13T02:50:59;-4.60;99.90
2861;DHT22;1438;50.922;6.704;2022-12-13T02:53:25;-4.60;99.90
2861;DHT22;1438;50.922;6.704;2022-12-13T02:55:51;-4.60;99.90
2861;DHT22;1438;50.922;6.704;2022-12-13T02:58:23;-4.60;99.90
2861;DHT22;1438;50.922;6.704;2022-12-13T03:06:38;-4.60;99.90
2861;DHT22;1438;50.922;6.704;2022-12-13T03:12:21;-4.50;99.90
2861;DHT22;1438;50.922;6.704;2022-12-13T03:17:53;-4.50;99.90
2861;DHT22;1438;50.922;6.704;2022-12-13T03:20:24;-4.60;99.90
2861;DHT22;1438;50.922;6.704;2022-12-13T03:22:54;-4.50;99.90
2861;DHT22;1438;50.922;6.704;2022-12-13T03:25:22;-4.60;99.90
2861;DHT22;1438;50.922;6.704;2022-12-13T03:27:48;-4.50;99.90
2861;DHT22;1438;50.922;6.704;2022-12-13T03:30:14;-4.60;99.90
2861;DHT22;1438;50.922;6.704;2022-12-13T03:32:39;-4.60;99.90
2861;DHT22;1438;50.922;6.704;2022-12-13T03:35:05;-4.70;99.90
2861;DHT22;1438;50.922;6.704;2022-12-13T03:37:31;-4.70;99.90
2861;DHT22;1438;50.922;6.704;2022-12-13T03:39:57;-4.70;99.90
2861;DHT22;1438;50.922;6.704;2022-12-13T03:42:23;-4.80;99.90
2861;DHT22;1438;50.922;6.704;2022-12-13T03:44:49;-4.80;99.90
2861;DHT22;1438;50.922;6.704;2022-12-13T03:47:15;-4.80;99.90
2861;DHT22;1438;50.922;6.704;2022-12-13T03:49:41;-4.80;99.90
2861;DHT22;1438;50.922;6.704;2022-12-13T03:52:07;-4.90;99.90
2861;DHT22;1438;50.922;6.704;2022-12-13T03:54:33;-4.90;99.90
2861;DHT22;1438;50.922;6.704;2022-12-13T03:56:58;-4.90;99.90
2861;DHT22;1438;50.922;6.704;2022-12-13T03:59:24;-4.90;99.90
2861;DHT22;1438;50.922;6.704;2022-12-13T04:01:49;-4.90;99.90
2861;DHT22;1438;50.922;6.704;2022-12-13T04:04:15;-4.90;99.90
2861;DHT22;1438;50.922;6.704;2022-12-13T04:06:41;-4.90;99.90
2861;DHT22;1438;50.922;6.704;2022-12-13T04:09:06;-4.90;99.90
2861;DHT22;1438;50.922;6.704;2022-12-13T04:11:32;-4.80;99.90
2861;DHT22;1438;50.922;6.704;2022-12-13T04:14:16;-4.80;99.90
2861;DHT22;1438;50.922;6.704;2022-12-13T04:16:41;-4.80;99.90
2861;DHT22;1438;50.922;6.704;2022-12-13T04:19:07;-4.80;99.90
2861;DHT22;1438;50.922;6.704;2022-12-13T04:21:32;-4.80;99.90
2861;DHT22;1438;50.922;6.704;2022-12-13T04:23:58;-4.80;99.90
2861;DHT22;1438;50.922;6.704;2022-12-13T04:26:23;-4.90;99.90
2861;DHT22;1438;50.922;6.704;2022-12-13T04:28:49;-4.80;99.90
2861;DHT22;1438;50.922;6.704;2022-12-13T04:31:15;-4.90;99.90
2861;DHT22;1438;50.922;6.704;2022-12-13T04:33:40;-4.90;99.90
2861;DHT22;1438;50.922;6.704;2022-12-13T04:36:06;-4.90;99.90
2861;DHT22;1438;50.922;6.704;2022-12-13T04:38:32;-4.90;99.90
2861;DHT22;1438;50.922;6.704;2022-12-13T04:41:12;-4.90;99.90
2861;DHT22;1438;50.922;6.704;2022-12-13T04:43:40;-4.90;99.90
2861;DHT22;1438;50.922;6.704;2022-12-13T04:46:07;-4.80;99.90
2861;DHT22;1438;50.922;6.704;2022-12-13T04:48:32;-4.80;99.90
2861;DHT22;1438;50.922;6.704;2022-12-13T04:50:59;-4.70;99.90
2861;DHT22;1438;50.922;6.704;2022-12-13T04:53:25;-4.60;99.90
2861;DHT22;1438;50.922;6.704;2022-12-13T04:55:51;-4.50;99.90
2861;DHT22;1438;50.922;6.704;2022-12-13T04:58:20;-4.40;99.90
2861;DHT22;1438;50.922;6.704;2022-12-13T05:00:45;-4.30;99.90
2861;DHT22;1438;50.922;6.704;2022-12-13T05:03:11;-4.20;99.90
2861;DHT22;1438;50.922;6.704;2022-12-13T05:05:40;-4.10;99.90
2861;DHT22;1438;50.922;6.704;2022-12-13T05:08:06;-4.10;99.90
2861;DHT22;1438;50.922;6.704;2022-12-13T05:10:32;-4.00;99.90
2861;DHT22;1438;50.922;6.704;2022-12-13T05:13:00;-3.90;99.90
2861;DHT22;1438;50.922;6.704;2022-12-13T05:15:26;-3.90;99.90
2861;DHT22;1438;50.922;6.704;2022-12-13T05:17:51;-3.90;99.90
2861;DHT22;1438;50.922;6.704;2022-12-13T05:20:17;-3.90;99.90
2861;DHT22;1438;50.922;6.704;2022-12-13T05:22:43;-3.90;99.90
2861;DHT22;1438;50.922;6.704;2022-12-13T05:25:09;-3.80;99.90
2861;DHT22;1438;50.922;6.704;2022-12-13T05:27:34;-3.80;99.90
2861;DHT22;1438;50.922;6.704;2022-12-13T05:30:00;-3.90;99.90
2861;DHT22;1438;50.922;6.704;2022-12-13T05:32:25;-3.80;99.90
2861;DHT22;1438;50.922;6.704;2022-12-13T05:34:51;-3.90;99.90
2861;DHT22;1438;50.922;6.704;2022-12-13T05:37:17;-3.90;99.90
2861;DHT22;1438;50.922;6.704;2022-12-13T05:39:42;-3.80;99.90
2861;DHT22;1438;50.922;6.704;2022-12-13T05:42:08;-3.90;99.90
2861;DHT22;1438;50.922;6.704;2022-12-13T05:44:34;-3.90;99.90
2861;DHT22;1438;50.922;6.704;2022-12-13T05:46:59;-3.90;99.90
2861;DHT22;1438;50.922;6.704;2022-12-13T05:49:25;-3.80;99.90
2861;DHT22;1438;50.922;6.704;2022-12-13T05:51:50;-3.80;99.90
2861;DHT22;1438;50.922;6.704;2022-12-13T05:54:16;-3.80;99.90
2861;DHT22;1438;50.922;6.704;2022-12-13T05:56:42;-3.70;99.90
2861;DHT22;1438;50.922;6.704;2022-12-13T05:59:07;-3.70;99.90
2861;DHT22;1438;50.922;6.704;2022-12-13T06:01:33;-3.70;99.90
2861;DHT22;1438;50.922;6.704;2022-12-13T06:03:58;-3.80;99.90
2861;DHT22;1438;50.922;6.704;2022-12-13T06:06:24;-3.80;99.90
2861;DHT22;1438;50.922;6.704;2022-12-13T06:08:50;-3.80;99.90
2861;DHT22;1438;50.922;6.704;2022-12-13T06:11:15;-3.90;99.90
2861;DHT22;1438;50.922;6.704;2022-12-13T06:13:44;-3.90;99.90
2861;DHT22;1438;50.922;6.704;2022-12-13T06:16:13;-3.90;99.90
2861;DHT22;1438;50.922;6.704;2022-12-13T06:18:39;-4.00;99.90
2861;DHT22;1438;50.922;6.704;2022-12-13T06:21:06;-4.10;99.90
2861;DHT22;1438;50.922;6.704;2022-12-13T06:23:33;-4.10;99.90
2861;DHT22;1438;50.922;6.704;2022-12-13T06:26:02;-4.10;99.90
2861;DHT22;1438;50.922;6.704;2022-12-13T06:28:27;-4.20;99.90
2861;DHT22;1438;50.922;6.704;2022-12-13T06:30:53;-4.20;99.90
2861;DHT22;1438;50.922;6.704;2022-12-13T06:33:19;-4.20;99.90
2861;DHT22;1438;50.922;6.704;2022-12-13T06:35:45;-4.30;99.90
2861;DHT22;1438;50.922;6.704;2022-12-13T06:38:11;-4.30;99.90
2861;DHT22;1438;50.922;6.704;2022-12-13T06:40:38;-4.40;99.90
2861;DHT22;1438;50.922;6.704;2022-12-13T06:43:04;-4.40;99.90
2861;DHT22;1438;50.922;6.704;2022-12-13T06:45:30;-4.40;99.90
2861;DHT22;1438;50.922;6.704;2022-12-13T06:47:56;-4.50;99.90
2861;DHT22;1438;50.922;6.704;2022-12-13T06:50:22;-4.50;99.90
2861;DHT22;1438;50.922;6.704;2022-12-13T06:52:48;-4.50;99.90
2861;DHT22;1438;50.922;6.704;2022-12-13T06:55:14;-4.50;99.90
2861;DHT22;1438;50.922;6.704;2022-12-13T06:57:40;-4.60;99.90
2861;DHT22;1438;50.922;6.704;2022-12-13T07:00:07;-4.60;99.90
2861;DHT22;1438;50.922;6.704;2022-12-13T07:02:32;-4.60;99.90
2861;DHT22;1438;50.922;6.704;2022-12-13T07:04:58;-4.60;99.90
2861;DHT22;1438;50.922;6.704;2022-12-13T07:07:24;-4.60;99.90
2861;DHT22;1438;50.922;6.704;2022-12-13T07:09:50;-4.60;99.90
2861;DHT22;1438;50.922;6.704;2022-12-13T07:12:16;-4.60;99.90
2861;DHT22;1438;50.922;6.704;2022-12-13T07:14:43;-4.60;99.90
2861;DHT22;1438;50.922;6.704;2022-12-13T07:17:09;-4.70;99.90
2861;DHT22;1438;50.922;6.704;2022-12-13T07:19:35;-4.70;99.90
2861;DHT22;1438;50.922;6.704;2022-12-13T07:22:00;-4.70;99.90
2861;DHT22;1438;50.922;6.704;2022-12-13T07:24:26;-4.70;99.90
2861;DHT22;1438;50.922;6.704;2022-12-13T07:26:51;-4.70;99.90
2861;DHT22;1438;50.922;6.704;2022-12-13T07:29:17;-4.70;99.90
2861;DHT22;1438;50.922;6.704;2022-12-13T07:31:43;-4.70;99.90
2861;DHT22;1438;50.922;6.704;2022-12-13T07:34:08;-4.70;99.90
2861;DHT22;1438;50.922;6.704;2022-12-13T07:36:34;-4.70;99.90
2861;DHT22;1438;50.922;6.704;2022-12-13T07:38:59;-4.80;99.90
2861;DHT22;1438;50.922;6.704;2022-12-13T07:41:25;-4.80;99.90
2861;DHT22;1438;50.922;6.704;2022-12-13T07:43:52;-4.80;99.90
2861;DHT22;1438;50.922;6.704;2022-12-13T07:46:18;-4.90;99.90
2861;DHT22;1438;50.922;6.704;2022-12-13T07:48:43;-4.80;99.90
2861;DHT22;1438;50.922;6.704;2022-12-13T07:51:10;-4.80;99.90
2861;DHT22;1438;50.922;6.704;2022-12-13T07:53:36;-4.80;99.90
2861;DHT22;1438;50.922;6.704;2022-12-13T07:56:03;-4.80;99.90
2861;DHT22;1438;50.922;6.704;2022-12-13T07:58:29;-4.80;99.90
2861;DHT22;1438;50.922;6.704;2022-12-13T08:01:08;-4.80;99.90
2861;DHT22;1438;50.922;6.704;2022-12-13T08:03:35;-4.80;99.90
2861;DHT22;1438;50.922;6.704;2022-12-13T08:06:06;-4.80;99.90
2861;DHT22;1438;50.922;6.704;2022-12-13T08:08:32;-4.80;99.90
2861;DHT22;1438;50.922;6.704;2022-12-13T08:11:25;-4.80;99.90
2861;DHT22;1438;50.922;6.704;2022-12-13T08:13:52;-4.80;99.90
2861;DHT22;1438;50.922;6.704;2022-12-13T08:16:18;-4.80;99.90
2861;DHT22;1438;50.922;6.704;2022-12-13T08:18:44;-4.80;99.90
2861;DHT22;1438;50.922;6.704;2022-12-13T08:21:12;-4.70;99.90
2861;DHT22;1438;50.922;6.704;2022-12-13T08:23:38;-4.70;99.90
2861;DHT22;1438;50.922;6.704;2022-12-13T08:26:04;-4.60;99.90
2861;DHT22;1438;50.922;6.704;2022-12-13T08:28:31;-4.60;99.90
2861;DHT22;1438;50.922;6.704;2022-12-13T08:31:09;-4.60;99.90
2861;DHT22;1438;50.922;6.704;2022-12-13T08:33:38;-4.50;99.90
2861;DHT22;1438;50.922;6.704;2022-12-13T08:36:13;-4.50;99.90
2861;DHT22;1438;50.922;6.704;2022-12-13T08:38:40;-4.40;99.90
2861;DHT22;1438;50.922;6.704;2022-12-13T08:41:06;-4.40;99.90
2861;DHT22;1438;50.922;6.704;2022-12-13T08:43:33;-4.30;99.90
2861;DHT22;1438;50.922;6.704;2022-12-13T08:45:59;-4.20;99.90
2861;DHT22;1438;50.922;6.704;2022-12-13T08:48:25;-4.20;99.90
2861;DHT22;1438;50.922;6.704;2022-12-13T08:50:51;-4.10;99.90
2861;DHT22;1438;50.922;6.704;2022-12-13T08:53:16;-4.10;99.90
2861;DHT22;1438;50.922;6.704;2022-12-13T08:55:42;-4.00;99.90
2861;DHT22;1438;50.922;6.704;2022-12-13T08:58:07;-4.00;99.90
2861;DHT22;1438;50.922;6.704;2022-12-13T09:00:34;-3.90;99.90
2861;DHT22;1438;50.922;6.704;2022-12-13T09:03:00;-3.90;99.90
2861;DHT22;1438;50.922;6.704;2022-12-13T09:05:28;-3.80;99.90
2861;DHT22;1438;50.922;6.704;2022-12-13T09:07:54;-3.80;99.90
2861;DHT22;1438;50.922;6.704;2022-12-13T09:10:21;-3.70;99.90
2861;DHT22;1438;50.922;6.704;2022-12-13T09:12:46;-3.70;99.90
2861;DHT22;1438;50.922;6.704;2022-12-13T09:15:12;-3.60;99.90
2861;DHT22;1438;50.922;6.704;2022-12-13T09:17:38;-3.50;99.90
2861;DHT22;1438;50.922;6.704;2022-12-13T09:20:08;-3.50;99.90
2861;DHT22;1438;50.922;6.704;2022-12-13T09:22:36;-3.50;99.90
2861;DHT22;1438;50.922;6.704;2022-12-13T09:25:02;-3.40;99.90
2861;DHT22;1438;50.922;6.704;2022-12-13T09:27:29;-3.30;99.90
2861;DHT22;1438;50.922;6.704;2022-12-13T09:29:55;-3.30;99.90
2861;DHT22;1438;50.922;6.704;2022-12-13T09:32:21;-3.20;99.90
2861;DHT22;1438;50.922;6.704;2022-12-13T09:34:47;-3.20;99.90
2861;DHT22;1438;50.922;6.704;2022-12-13T09:37:13;-3.10;99.90
2861;DHT22;1438;50.922;6.704;2022-12-13T09:39:38;-3.00;99.90
2861;DHT22;1438;50.922;6.704;2022-12-13T09:42:08;-2.90;99.90
2861;DHT22;1438;50.922;6.704;2022-12-13T09:44:38;-2.80;99.90
2861;DHT22;1438;50.922;6.704;2022-12-13T09:47:12;-2.70;99.90
2861;DHT22;1438;50.922;6.704;2022-12-13T09:49:40;-2.50;99.90
2861;DHT22;1438;50.922;6.704;2022-12-13T09:52:13;-2.40;99.90
2861;DHT22;1438;50.922;6.704;2022-12-13T09:54:39;-2.40;99.90
2861;DHT22;1438;50.922;6.704;2022-12-13T09:57:22;-2.30;99.90
2861;DHT22;1438;50.922;6.704;2022-12-13T09:59:49;-2.10;99.90
2861;DHT22;1438;50.922;6.704;2022-12-13T10:02:19;-1.80;99.90
2861;DHT22;1438;50.922;6.704;2022-12-13T10:04:46;-1.60;99.90
2861;DHT22;1438;50.922;6.704;2022-12-13T10:07:18;-1.60;99.90
2861;DHT22;1438;50.922;6.704;2022-12-13T10:09:44;-1.40;99.90
2861;DHT22;1438;50.922;6.704;2022-12-13T10:12:12;-1.20;99.90
2861;DHT22;1438;50.922;6.704;2022-12-13T10:14:42;-0.90;99.90
2861;DHT22;1438;50.922;6.704;2022-12-13T10:17:14;-0.70;99.90
2861;DHT22;1438;50.922;6.704;2022-12-13T10:19:43;-0.70;99.90
2861;DHT22;1438;50.922;6.704;2022-12-13T10:22:17;-0.50;99.90
2861;DHT22;1438;50.922;6.704;2022-12-13T10:27:15;-0.30;99.90
2861;DHT22;1438;50.922;6.704;2022-12-13T10:32:27;0.10;99.90
2861;DHT22;1438;50.922;6.704;2022-12-13T10:34:53;0.20;99.90
2861;DHT22;1438;50.922;6.704;2022-12-13T10:37:29;0.20;99.90
2861;DHT22;1438;50.922;6.704;2022-12-13T10:39:56;0.10;99.90
2861;DHT22;1438;50.922;6.704;2022-12-13T10:42:23;0.20;99.90
2861;DHT22;1438;50.922;6.704;2022-12-13T10:44:48;0.20;99.90
2861;DHT22;1438;50.922;6.704;2022-12-13T10:47:32;0.40;99.90
2861;DHT22;1438;50.922;6.704;2022-12-13T10:49:58;0.40;99.90
2861;DHT22;1438;50.922;6.704;2022-12-13T10:52:37;0.50;99.90
2861;DHT22;1438;50.922;6.704;2022-12-13T10:55:06;0.70;99.90
2861;DHT22;1438;50.922;6.704;2022-12-13T10:57:35;0.70;99.90
2861;DHT22;1438;50.922;6.704;2022-12-13T11:00:02;1.00;99.90
2861;DHT22;1438;50.922;6.704;2022-12-13T11:04:57;1.70;99.90
2861;DHT22;1438;50.922;6.704;2022-12-13T11:07:30;1.70;99.90
2861;DHT22;1438;50.922;6.704;2022-12-13T11:10:14;1.90;99.90
2861;DHT22;1438;50.922;6.704;2022-12-13T11:12:41;2.20;99.90
2861;DHT22;1438;50.922;6.704;2022-12-13T11:15:12;1.90;99.90
2861;DHT22;1438;50.922;6.704;2022-12-13T11:17:48;2.10;99.90
2861;DHT22;1438;50.922;6.704;2022-12-13T11:20:20;2.00;99.90
2861;DHT22;1438;50.922;6.704;2022-12-13T11:22:48;1.40;99.90
2861;DHT22;1438;50.922;6.704;2022-12-13T11:25:22;1.20;99.90
2861;DHT22;1438;50.922;6.704;2022-12-13T11:30:25;1.50;99.90
2861;DHT22;1438;50.922;6.704;2022-12-13T11:33:10;1.60;99.90
2861;DHT22;1438;50.922;6.704;2022-12-13T11:38:29;1.90;99.90
2861;DHT22;1438;50.922;6.704;2022-12-13T11:41:00;1.80;99.90
2861;DHT22;1438;50.922;6.704;2022-12-13T11:43:35;2.00;99.90
2861;DHT22;1438;50.922;6.704;2022-12-13T11:46:50;1.80;99.90
2861;DHT22;1438;50.922;6.704;2022-12-13T11:48:54;1.70;99.90
2861;DHT22;1438;50.922;6.704;2022-12-13T11:51:28;1.80;99.90
2861;DHT22;1438;50.922;6.704;2022-12-13T11:54:23;1.90;99.90
2861;DHT22;1438;50.922;6.704;2022-12-13T11:56:55;1.90;99.90
2861;DHT22;1438;50.922;6.704;2022-12-13T11:59:49;2.30;99.90
2861;DHT22;1438;50.922;6.704;2022-12-13T12:02:34;2.50;99.90
2861;DHT22;1438;50.922;6.704;2022-12-13T12:07:52;3.00;99.90
2861;DHT22;1438;50.922;6.704;2022-12-13T12:10:29;2.90;99.90
2861;DHT22;1438;50.922;6.704;2022-12-13T12:13:23;3.30;99.90
2861;DHT22;1438;50.922;6.704;2022-12-13T12:18:58;3.10;99.90
2861;DHT22;1438;50.922;6.704;2022-12-13T12:21:37;3.00;99.90
2861;DHT22;1438;50.922;6.704;2022-12-13T12:26:48;2.70;99.90
2861;DHT22;1438;50.922;6.704;2022-12-13T12:29:50;2.80;99.90
2861;DHT22;1438;50.922;6.704;2022-12-13T12:35:43;2.30;99.90
2861;DHT22;1438;50.922;6.704;2022-12-13T12:43:43;1.80;99.90
2861;DHT22;1438;50.922;6.704;2022-12-13T12:46:30;1.70;99.90
2861;DHT22;1438;50.922;6.704;2022-12-13T12:52:26;1.60;99.90
2861;DHT22;1438;50.922;6.704;2022-12-13T12:54:58;1.50;99.90
2861;DHT22;1438;50.922;6.704;2022-12-13T13:00:21;1.30;99.90
2861;DHT22;1438;50.922;6.704;2022-12-13T13:02:56;1.30;99.90
2861;DHT22;1438;50.922;6.704;2022-12-13T13:05:32;1.30;99.90
2861;DHT22;1438;50.922;6.704;2022-12-13T13:08:19;1.20;99.90
2861;DHT22;1438;50.922;6.704;2022-12-13T13:10:47;1.20;99.90
2861;DHT22;1438;50.922;6.704;2022-12-13T13:16:02;1.30;99.90
2861;DHT22;1438;50.922;6.704;2022-12-13T13:18:51;1.30;99.90
2861;DHT22;1438;50.922;6.704;2022-12-13T13:26:30;1.20;99.90
2861;DHT22;1438;50.922;6.704;2022-12-13T13:36:54;1.10;99.90
2861;DHT22;1438;50.922;6.704;2022-12-13T13:58:52;0.80;99.90
2861;DHT22;1438;50.922;6.704;2022-12-13T14:01:36;0.80;99.90
2861;DHT22;1438;50.922;6.704;2022-12-13T14:04:37;0.80;99.90
2861;DHT22;1438;50.922;6.704;2022-12-13T14:10:05;0.80;99.90
2861;DHT22;1438;50.922;6.704;2022-12-13T14:21:14;0.60;99.90
2861;DHT22;1438;50.922;6.704;2022-12-13T14:23:53;0.50;99.90
2861;DHT22;1438;50.922;6.704;2022-12-13T14:29:26;0.50;99.90
2861;DHT22;1438;50.922;6.704;2022-12-13T14:31:52;0.40;99.90
2861;DHT22;1438;50.922;6.704;2022-12-13T14:34:28;0.40;99.90
2861;DHT22;1438;50.922;6.704;2022-12-13T14:37:00;0.30;99.90
2861;DHT22;1438;50.922;6.704;2022-12-13T14:39:28;0.30;99.90
2861;DHT22;1438;50.922;6.704;2022-12-13T14:41:57;0.20;99.90
2861;DHT22;1438;50.922;6.704;2022-12-13T14:44:24;0.10;99.90
2861;DHT22;1438;50.922;6.704;2022-12-13T14:47:04;0.10;99.90
2861;DHT22;1438;50.922;6.704;2022-12-13T14:49:32;0.10;99.90
2861;DHT22;1438;50.922;6.704;2022-12-13T14:52:05;0.00;99.90
2861;DHT22;1438;50.922;6.704;2022-12-13T14:55:01;0.00;99.90
2861;DHT22;1438;50.922;6.704;2022-12-13T14:57:32;-0.10;99.90
2861;DHT22;1438;50.922;6.704;2022-12-13T15:00:00;-0.10;99.90
2861;DHT22;1438;50.922;6.704;2022-12-13T15:02:35;-0.10;99.90
2861;DHT22;1438;50.922;6.704;2022-12-13T15:05:03;-0.20;99.90
2861;DHT22;1438;50.922;6.704;2022-12-13T15:07:37;-0.30;99.90
2861;DHT22;1438;50.922;6.704;2022-12-13T15:10:31;-0.30;99.90
2861;DHT22;1438;50.922;6.704;2022-12-13T15:12:58;-0.30;99.90
2861;DHT22;1438;50.922;6.704;2022-12-13T15:15:31;-0.30;99.90
2861;DHT22;1438;50.922;6.704;2022-12-13T15:18:06;-0.40;99.90
2861;DHT22;1438;50.922;6.704;2022-12-13T15:20:32;-0.40;99.90
2861;DHT22;1438;50.922;6.704;2022-12-13T15:25:43;-0.50;99.90
2861;DHT22;1438;50.922;6.704;2022-12-13T15:28:12;-0.60;99.90
2861;DHT22;1438;50.922;6.704;2022-12-13T15:30:39;-0.60;99.90
2861;DHT22;1438;50.922;6.704;2022-12-13T15:33:15;-0.60;99.90
2861;DHT22;1438;50.922;6.704;2022-12-13T15:35:42;-0.70;99.90
2861;DHT22;1438;50.922;6.704;2022-12-13T15:38:12;-0.70;99.90
2861;DHT22;1438;50.922;6.704;2022-12-13T15:40:47;-0.80;99.90
2861;DHT22;1438;50.922;6.704;2022-12-13T15:43:17;-0.80;99.90
2861;DHT22;1438;50.922;6.704;2022-12-13T15:45:46;-0.90;99.90
2861;DHT22;1438;50.922;6.704;2022-12-13T15:48:33;-0.90;99.90
2861;DHT22;1438;50.922;6.704;2022-12-13T15:53:32;-1.00;99.90
2861;DHT22;1438;50.922;6.704;2022-12-13T15:55:58;-1.00;99.90
2861;DHT22;1438;50.922;6.704;2022-12-13T15:58:33;-1.10;99.90
2861;DHT22;1438;50.922;6.704;2022-12-13T16:00:59;-1.10;99.90
2861;DHT22;1438;50.922;6.704;2022-12-13T16:03:40;-1.10;99.90
2861;DHT22;1438;50.922;6.704;2022-12-13T16:06:07;-1.20;99.90
2861;DHT22;1438;50.922;6.704;2022-12-13T16:08:37;-1.30;99.90
2861;DHT22;1438;50.922;6.704;2022-12-13T16:11:05;-1.20;99.90
2861;DHT22;1438;50.922;6.704;2022-12-13T16:13:34;-1.30;99.90
2861;DHT22;1438;50.922;6.704;2022-12-13T16:16:25;-1.30;99.90
2861;DHT22;1438;50.922;6.704;2022-12-13T16:18:54;-1.30;99.90
2861;DHT22;1438;50.922;6.704;2022-12-13T16:21:21;-1.30;99.90
2861;DHT22;1438;50.922;6.704;2022-12-13T16:23:46;-1.30;99.90
2861;DHT22;1438;50.922;6.704;2022-12-13T16:26:12;-1.30;99.90
2861;DHT22;1438;50.922;6.704;2022-12-13T16:28:41;-1.30;99.90
2861;DHT22;1438;50.922;6.704;2022-12-13T16:33:41;-1.30;99.90
2861;DHT22;1438;50.922;6.704;2022-12-13T16:36:08;-1.30;99.90
2861;DHT22;1438;50.922;6.704;2022-12-13T16:38:34;-1.30;99.90
2861;DHT22;1438;50.922;6.704;2022-12-13T16:41:00;-1.30;99.90
2861;DHT22;1438;50.922;6.704;2022-12-13T16:43:26;-1.40;99.90
2861;DHT22;1438;50.922;6.704;2022-12-13T16:45:53;-1.40;99.90
2861;DHT22;1438;50.922;6.704;2022-12-13T16:48:20;-1.40;99.90
2861;DHT22;1438;50.922;6.704;2022-12-13T16:50:48;-1.50;99.90
2861;DHT22;1438;50.922;6.704;2022-12-13T16:53:14;-1.50;99.90
2861;DHT22;1438;50.922;6.704;2022-12-13T16:55:40;-1.50;99.90
2861;DHT22;1438;50.922;6.704;2022-12-13T16:58:09;-1.50;99.90
2861;DHT22;1438;50.922;6.704;2022-12-13T17:00:36;-1.50;99.90
2861;DHT22;1438;50.922;6.704;2022-12-13T17:03:03;-1.40;99.90
2861;DHT22;1438;50.922;6.704;2022-12-13T17:05:30;-1.40;99.90
2861;DHT22;1438;50.922;6.704;2022-12-13T17:07:56;-1.40;99.90
2861;DHT22;1438;50.922;6.704;2022-12-13T17:10:22;-1.40;99.90
2861;DHT22;1438;50.922;6.704;2022-12-13T17:12:48;-1.40;99.90
2861;DHT22;1438;50.922;6.704;2022-12-13T17:15:14;-1.40;99.90
2861;DHT22;1438;50.922;6.704;2022-12-13T17:17:41;-1.40;99.90
2861;DHT22;1438;50.922;6.704;2022-12-13T17:20:09;-1.50;99.90
2861;DHT22;1438;50.922;6.704;2022-12-13T17:22:36;-1.50;99.90
2861;DHT22;1438;50.922;6.704;2022-12-13T17:25:02;-1.40;99.90
2861;DHT22;1438;50.922;6.704;2022-12-13T17:27:29;-1.50;99.90
2861;DHT22;1438;50.922;6.704;2022-12-13T17:29:55;-1.50;99.90
2861;DHT22;1438;50.922;6.704;2022-12-13T17:32:21;-1.40;99.90
2861;DHT22;1438;50.922;6.704;2022-12-13T17:34:46;-1.50;99.90
2861;DHT22;1438;50.922;6.704;2022-12-13T17:37:12;-1.50;99.90
2861;DHT22;1438;50.922;6.704;2022-12-13T17:39:37;-1.50;99.90
2861;DHT22;1438;50.922;6.704;2022-12-13T17:42:03;-1.50;99.90
2861;DHT22;1438;50.922;6.704;2022-12-13T17:44:29;-1.50;99.90
2861;DHT22;1438;50.922;6.704;2022-12-13T17:46:54;-1.50;99.90
2861;DHT22;1438;50.922;6.704;2022-12-13T17:49:20;-1.50;99.90
2861;DHT22;1438;50.922;6.704;2022-12-13T17:51:45;-1.50;99.90
2861;DHT22;1438;50.922;6.704;2022-12-13T17:54:11;-1.50;99.90
2861;DHT22;1438;50.922;6.704;2022-12-13T17:56:37;-1.60;99.90
2861;DHT22;1438;50.922;6.704;2022-12-13T17:59:04;-1.60;99.90
2861;DHT22;1438;50.922;6.704;2022-12-13T18:01:30;-1.60;99.90
2861;DHT22;1438;50.922;6.704;2022-12-13T18:03:56;-1.70;99.90
2861;DHT22;1438;50.922;6.704;2022-12-13T18:06:23;-1.70;99.90
2861;DHT22;1438;50.922;6.704;2022-12-13T18:08:49;-1.70;99.90
2861;DHT22;1438;50.922;6.704;2022-12-13T18:11:16;-1.70;99.90
2861;DHT22;1438;50.922;6.704;2022-12-13T18:13:42;-1.70;99.90
2861;DHT22;1438;50.922;6.704;2022-12-13T18:16:10;-1.70;99.90
2861;DHT22;1438;50.922;6.704;2022-12-13T18:18:37;-1.70;99.90